Terminal Aerodrome Forecast
Issued by NWS Charleston, WV

Current Version | Previous Version | Text Only | Print | Product List | Glossary Off
Versions: 1 2 3 4 5 6 7 8 9 10 11 12 13 14 15 16 17 18 19 20 21

000
FTUS41 KRLX 191700
TAFCRW
TAF
KCRW 191734Z 1918/2018 14012G22KT 6SM -RA FEW040 OVC090
     FM200200 14012G21KT P6SM OVC060
     FM200500 18010G15KT P6SM BKN035
     FM201500 22013G20KT P6SM VCTS OVC050CB=

USA.gov is the U.S. government's official web portal to all federal, state and local government web resources and services.